Erzurum International Airport Erzurum TR
ICAO: LTCE
IATA: ERZ
Category: Large
Scheduled Services: Yes

Elevation: 5763 ft
TransAlt. 15000 ft.

Airport Communications:
APP:118.1
GND:121.95
TWR:118.1

LTCE Zoom In..

If you have problems with the map follow the link
https://www.worldairports.se/pages/airport.php?
ICAO=LTCE

Runways:

(A) RW 08L length 12500 ft width 148 ft
ILS 110.70 / hdg 83

(B) RW 08R length 12500 ft width 98 ft
---- / hdg 83

(C) RW 26L length 12500 ft width 98 ft
---- / hdg 263

(D) RW 26R length 12500 ft width 148 ft
ILS 110.50 / hdg 263

Location; LTCE
Day. 22 / Time. 11.20 Zulu
* QNH: 1021
* Temperature: 15° c. 59°f.
* Wind from: 260° Speed 15 kn.
Dewpoint: 05° c.
Visibility: 10 km or more.
Clouds: Scattered 3500 ft.
Clouds: Broken 7000 ft.
No significant changes expected in the near future.

LTCE 221120Z 26015KT 9999 SCT035 BKN070 15/05 Q1021 NOSIG


Wind From 260°
Speed 15 kn.

 
 
jpsmedia.com for Web Design worldairports.se 2018   terms of use